TimeMDT,TemperatureF,Dew PointF,Humidity,Sea Level PressureIn,VisibilityMPH,Wind Direction,Wind SpeedMPH,Gust SpeedMPH,PrecipitationIn,Events,Conditions,WindDirDegrees,DateUTC
12:15 AM,35.1,29.1,79,30.12,10.0,SE,8.1,-,N/A,,Clear,140,2013-04-02 06:15:00
12:35 AM,35.1,29.3,80,30.12,10.0,SE,8.1,-,N/A,,Scattered Clouds,140,2013-04-02 06:35:00
12:55 AM,35.6,30.9,83,30.12,10.0,SE,8.1,-,N/A,,Mostly Cloudy,130,2013-04-02 06:55:00
1:15 AM,33.1,30.0,89,30.11,10.0,East,8.1,-,N/A,,Scattered Clouds,100,2013-04-02 07:15:00
1:35 AM,33.8,31.1,90,30.11,10.0,ESE,9.2,-,N/A,,Mostly Cloudy,110,2013-04-02 07:35:00
1:55 AM,34.0,31.5,90,30.11,10.0,East,8.1,-,N/A,,Mostly Cloudy,100,2013-04-02 07:55:00
2:15 AM,33.8,31.5,91,30.10,10.0,East,8.1,-,N/A,,Mostly Cloudy,80,2013-04-02 08:15:00
2:35 AM,34.2,31.8,91,30.10,10.0,East,6.9,-,N/A,,Overcast,90,2013-04-02 08:35:00
2:55 AM,34.7,31.8,89,30.09,10.0,East,8.1,-,N/A,,Overcast,100,2013-04-02 08:55:00
3:15 AM,35.4,30.4,82,30.09,10.0,ESE,8.1,-,N/A,,Overcast,110,2013-04-02 09:15:00
3:35 AM,35.8,30.0,80,30.09,10.0,ESE,9.2,-,N/A,,Overcast,120,2013-04-02 09:35:00
3:55 AM,36.7,28.8,73,30.09,10.0,ESE,6.9,-,N/A,,Overcast,120,2013-04-02 09:55:00
4:15 AM,36.5,27.9,71,30.09,10.0,SE,8.1,-,N/A,,Overcast,130,2013-04-02 10:15:00
4:35 AM,36.7,27.5,69,30.09,10.0,SE,8.1,-,N/A,,Overcast,140,2013-04-02 10:35:00
4:55 AM,36.9,27.5,69,30.09,10.0,SSE,12.7,-,N/A,,Overcast,150,2013-04-02 10:55:00
5:15 AM,36.9,28.2,71,30.09,10.0,SSE,12.7,-,N/A,,Overcast,150,2013-04-02 11:15:00
5:35 AM,36.9,28.4,71,30.09,10.0,SSE,9.2,-,N/A,,Overcast,150,2013-04-02 11:35:00
5:55 AM,36.9,28.0,70,30.09,10.0,SE,6.9,-,N/A,,Overcast,140,2013-04-02 11:55:00
6:15 AM,36.7,27.5,69,30.09,10.0,SE,6.9,-,N/A,,Overcast,130,2013-04-02 12:15:00
6:35 AM,36.5,27.5,70,30.09,10.0,SE,6.9,-,N/A,,Overcast,130,2013-04-02 12:35:00
6:55 AM,36.5,27.5,70,30.09,10.0,ESE,8.1,-,N/A,,Overcast,120,2013-04-02 12:55:00
7:15 AM,35.6,28.0,74,30.09,10.0,East,8.1,-,N/A,,Overcast,100,2013-04-02 13:15:00
7:35 AM,35.8,28.9,76,30.10,10.0,ESE,6.9,-,N/A,,Overcast,110,2013-04-02 13:35:00
7:55 AM,36.5,29.5,76,30.10,10.0,East,8.1,-,N/A,,Overcast,100,2013-04-02 13:55:00
8:35 AM,36.9,29.7,75,30.10,10.0,East,10.4,-,N/A,,Overcast,90,2013-04-02 14:35:00
8:55 AM,37.4,29.8,74,30.11,10.0,East,11.5,-,N/A,,Overcast,100,2013-04-02 14:55:00
9:15 AM,38.1,29.5,71,30.11,10.0,East,12.7,-,N/A,,Overcast,100,2013-04-02 15:15:00
9:35 AM,38.3,28.8,69,30.12,10.0,East,12.7,-,N/A,,Overcast,100,2013-04-02 15:35:00
9:55 AM,39.2,28.9,67,30.12,10.0,ESE,12.7,-,N/A,,Overcast,110,2013-04-02 15:55:00
10:15 AM,40.8,29.3,64,30.12,10.0,ESE,11.5,-,N/A,,Overcast,120,2013-04-02 16:15:00
10:35 AM,40.8,28.9,63,30.12,10.0,SE,11.5,17.3,N/A,,Overcast,130,2013-04-02 16:35:00
10:55 AM,41.4,28.9,61,30.12,10.0,SE,13.8,-,N/A,,Overcast,140,2013-04-02 16:55:00
11:15 AM,43.0,29.3,59,30.12,10.0,ESE,13.8,18.4,N/A,,Overcast,120,2013-04-02 17:15:00
11:35 AM,44.6,30.0,57,30.12,10.0,SE,11.5,-,N/A,,Overcast,130,2013-04-02 17:35:00
11:55 AM,45.1,30.4,56,30.12,10.0,SSE,12.7,-,N/A,,Overcast,150,2013-04-02 17:55:00
12:15 PM,46.4,30.4,54,30.11,10.0,ESE,10.4,18.4,N/A,,Overcast,120,2013-04-02 18:15:00
12:35 PM,45.9,30.2,54,30.11,10.0,SE,12.7,17.3,N/A,,Overcast,130,2013-04-02 18:35:00
12:55 PM,46.4,30.2,53,30.11,10.0,ESE,10.4,-,N/A,,Overcast,120,2013-04-02 18:55:00
1:15 PM,46.8,30.2,53,30.11,10.0,ESE,15.0,20.7,N/A,,Overcast,120,2013-04-02 19:15:00
1:35 PM,46.4,30.2,53,30.10,10.0,ESE,16.1,20.7,N/A,,Overcast,120,2013-04-02 19:35:00
1:55 PM,46.4,30.7,54,30.10,10.0,ESE,15.0,20.7,N/A,,Overcast,120,2013-04-02 19:55:00
2:15 PM,45.5,30.9,57,30.10,10.0,ESE,11.5,-,N/A,,Overcast,120,2013-04-02 20:15:00
2:35 PM,45.7,31.1,57,30.10,10.0,SE,10.4,-,N/A,,Overcast,140,2013-04-02 20:35:00
2:55 PM,45.7,31.1,57,30.09,10.0,ESE,11.5,-,N/A,,Overcast,110,2013-04-02 20:55:00
3:15 PM,45.9,31.1,56,30.09,10.0,ESE,10.4,18.4,N/A,,Overcast,110,2013-04-02 21:15:00
3:35 PM,46.0,30.9,56,30.09,10.0,ESE,12.7,18.4,N/A,,Overcast,110,2013-04-02 21:35:00
3:55 PM,45.7,30.7,56,30.09,10.0,ESE,11.5,20.7,N/A,,Overcast,110,2013-04-02 21:55:00
4:15 PM,44.6,30.7,58,30.09,10.0,ESE,10.4,18.4,N/A,,Overcast,110,2013-04-02 22:15:00
4:35 PM,43.7,30.2,59,30.09,10.0,ESE,11.5,-,N/A,,Overcast,120,2013-04-02 22:35:00
4:55 PM,43.7,30.4,59,30.09,10.0,ESE,11.5,-,N/A,,Overcast,110,2013-04-02 22:55:00
5:15 PM,43.0,29.8,60,30.09,10.0,ESE,12.7,-,N/A,,Overcast,120,2013-04-02 23:15:00
5:35 PM,43.0,30.0,60,30.10,10.0,ESE,8.1,-,N/A,,Overcast,110,2013-04-02 23:35:00
5:55 PM,42.3,30.0,62,30.10,10.0,ESE,10.4,-,N/A,,Overcast,120,2013-04-02 23:55:00
6:15 PM,41.7,30.0,63,30.10,10.0,ESE,10.4,-,N/A,,Overcast,120,2013-04-03 00:15:00
6:35 PM,41.2,30.0,65,30.11,10.0,SE,9.2,-,N/A,,Overcast,140,2013-04-03 00:35:00
6:55 PM,40.6,30.2,66,30.11,10.0,SSE,9.2,-,N/A,,Overcast,150,2013-04-03 00:55:00
7:15 PM,39.7,30.9,71,30.12,10.0,SSE,6.9,-,N/A,,Overcast,160,2013-04-03 01:15:00
7:35 PM,39.6,30.7,71,30.12,10.0,SE,10.4,-,N/A,,Overcast,140,2013-04-03 01:35:00
7:55 PM,39.2,30.9,72,30.13,10.0,SE,10.4,-,N/A,,Overcast,140,2013-04-03 01:55:00
8:15 PM,37.8,32.0,80,30.13,10.0,SE,9.2,-,N/A,,Overcast,140,2013-04-03 02:15:00
8:35 PM,37.4,32.0,81,30.14,10.0,SE,8.1,-,N/A,,Overcast,140,2013-04-03 02:35:00
8:55 PM,36.7,32.0,83,30.15,10.0,SE,8.1,-,N/A,,Overcast,140,2013-04-03 02:55:00
9:15 PM,36.1,32.4,86,30.16,10.0,SE,9.2,-,N/A,,Overcast,130,2013-04-03 03:15:00
9:35 PM,35.2,32.9,91,30.16,10.0,SE,8.1,-,N/A,,Overcast,140,2013-04-03 03:35:00
9:55 PM,34.7,32.9,93,30.16,10.0,SE,8.1,-,N/A,,Overcast,140,2013-04-03 03:55:00
10:15 PM,34.7,32.9,93,30.15,10.0,SE,8.1,-,N/A,,Overcast,140,2013-04-03 04:15:00
10:35 PM,34.3,33.1,95,30.15,10.0,SE,8.1,-,N/A,,Overcast,140,2013-04-03 04:35:00
10:55 PM,34.3,32.9,94,30.15,10.0,SE,6.9,-,N/A,,Overcast,130,2013-04-03 04:55:00
11:15 PM,34.2,32.9,95,30.14,10.0,SE,8.1,-,N/A,,Overcast,140,2013-04-03 05:15:00
11:35 PM,33.6,32.4,95,30.14,10.0,SE,6.9,-,N/A,,Overcast,140,2013-04-03 05:35:00
11:55 PM,33.3,32.4,96,30.13,10.0,SE,8.1,-,N/A,,Overcast,130,2013-04-03 05:55:00